sensor_id;sensor_type;location;lat;lon;timestamp;temperature;humidity
19966;DHT22;10144;50.874;4.762;2022-10-20T00:01:12;12.60;99.90
19966;DHT22;10144;50.874;4.762;2022-10-20T00:03:37;12.50;99.90
19966;DHT22;10144;50.874;4.762;2022-10-20T00:08:33;12.50;99.90
19966;DHT22;10144;50.874;4.762;2022-10-20T00:10:58;12.40;99.90
19966;DHT22;10144;50.874;4.762;2022-10-20T00:13:24;12.50;99.90
19966;DHT22;10144;50.874;4.762;2022-10-20T00:15:51;12.40;99.90
19966;DHT22;10144;50.874;4.762;2022-10-20T00:18:17;12.40;99.90
19966;DHT22;10144;50.874;4.762;2022-10-20T00:20:43;12.40;99.90
19966;DHT22;10144;50.874;4.762;2022-10-20T00:23:09;12.40;99.90
19966;DHT22;10144;50.874;4.762;2022-10-20T00:25:35;12.40;99.90
19966;DHT22;10144;50.874;4.762;2022-10-20T00:28:03;12.30;99.90
19966;DHT22;10144;50.874;4.762;2022-10-20T00:30:30;12.10;99.90
19966;DHT22;10144;50.874;4.762;2022-10-20T00:32:55;12.20;99.90
19966;DHT22;10144;50.874;4.762;2022-10-20T00:35:21;12.20;99.90
19966;DHT22;10144;50.874;4.762;2022-10-20T00:37:47;12.20;99.90
19966;DHT22;10144;50.874;4.762;2022-10-20T00:40:12;12.20;99.90
19966;DHT22;10144;50.874;4.762;2022-10-20T00:42:43;12.20;99.90
19966;DHT22;10144;50.874;4.762;2022-10-20T00:45:18;12.30;99.90
19966;DHT22;10144;50.874;4.762;2022-10-20T00:48:13;12.30;99.90
19966;DHT22;10144;50.874;4.762;2022-10-20T00:50:45;12.40;99.90
19966;DHT22;10144;50.874;4.762;2022-10-20T00:53:12;12.40;99.90
19966;DHT22;10144;50.874;4.762;2022-10-20T00:55:40;12.40;99.90
19966;DHT22;10144;50.874;4.762;2022-10-20T00:58:08;12.50;99.90
19966;DHT22;10144;50.874;4.762;2022-10-20T01:00:37;12.50;99.90
19966;DHT22;10144;50.874;4.762;2022-10-20T01:03:05;12.50;99.90
19966;DHT22;10144;50.874;4.762;2022-10-20T01:05:32;12.60;99.90
19966;DHT22;10144;50.874;4.762;2022-10-20T01:07:58;12.50;99.90
19966;DHT22;10144;50.874;4.762;2022-10-20T01:10:28;12.50;99.90
19966;DHT22;10144;50.874;4.762;2022-10-20T01:12:59;12.50;99.90
19966;DHT22;10144;50.874;4.762;2022-10-20T01:15:41;12.60;99.90
19966;DHT22;10144;50.874;4.762;2022-10-20T01:26:36;12.40;99.90
19966;DHT22;10144;50.874;4.762;2022-10-20T01:32:08;12.30;99.90
19966;DHT22;10144;50.874;4.762;2022-10-20T01:40:08;12.50;99.90
19966;DHT22;10144;50.874;4.762;2022-10-20T01:42:37;12.50;99.90
19966;DHT22;10144;50.874;4.762;2022-10-20T01:45:05;12.50;99.90
19966;DHT22;10144;50.874;4.762;2022-10-20T01:47:33;12.50;99.90
19966;DHT22;10144;50.874;4.762;2022-10-20T01:49:59;12.40;99.90
19966;DHT22;10144;50.874;4.762;2022-10-20T01:52:26;12.50;99.90
19966;DHT22;10144;50.874;4.762;2022-10-20T01:54:53;12.50;99.90
19966;DHT22;10144;50.874;4.762;2022-10-20T02:05:17;12.50;99.90
19966;DHT22;10144;50.874;4.762;2022-10-20T02:07:44;12.50;99.90
19966;DHT22;10144;50.874;4.762;2022-10-20T02:10:22;12.50;99.90
19966;DHT22;10144;50.874;4.762;2022-10-20T02:12:55;12.60;99.90
19966;DHT22;10144;50.874;4.762;2022-10-20T02:15:24;12.60;99.90
19966;DHT22;10144;50.874;4.762;2022-10-20T02:17:54;12.60;99.90
19966;DHT22;10144;50.874;4.762;2022-10-20T02:20:22;12.60;99.90
19966;DHT22;10144;50.874;4.762;2022-10-20T02:22:49;12.60;99.90
19966;DHT22;10144;50.874;4.762;2022-10-20T02:25:15;12.60;99.90
19966;DHT22;10144;50.874;4.762;2022-10-20T02:27:45;12.50;99.90
19966;DHT22;10144;50.874;4.762;2022-10-20T02:30:14;12.50;99.90
19966;DHT22;10144;50.874;4.762;2022-10-20T02:32:41;12.60;99.90
19966;DHT22;10144;50.874;4.762;2022-10-20T02:35:14;12.60;99.90
19966;DHT22;10144;50.874;4.762;2022-10-20T02:37:41;12.50;99.90
19966;DHT22;10144;50.874;4.762;2022-10-20T02:40:08;12.60;99.90
19966;DHT22;10144;50.874;4.762;2022-10-20T02:42:35;12.60;99.90
19966;DHT22;10144;50.874;4.762;2022-10-20T02:45:02;12.60;99.90
19966;DHT22;10144;50.874;4.762;2022-10-20T02:47:28;12.60;99.90
19966;DHT22;10144;50.874;4.762;2022-10-20T02:49:53;12.60;99.90
19966;DHT22;10144;50.874;4.762;2022-10-20T02:52:19;12.50;99.90
19966;DHT22;10144;50.874;4.762;2022-10-20T02:54:44;12.60;99.90
19966;DHT22;10144;50.874;4.762;2022-10-20T02:57:10;12.60;99.90
19966;DHT22;10144;50.874;4.762;2022-10-20T02:59:36;12.60;99.90
19966;DHT22;10144;50.874;4.762;2022-10-20T03:02:01;12.60;99.90
19966;DHT22;10144;50.874;4.762;2022-10-20T03:04:27;12.60;99.90
19966;DHT22;10144;50.874;4.762;2022-10-20T03:06:53;12.50;99.90
19966;DHT22;10144;50.874;4.762;2022-10-20T03:09:19;12.50;99.90
19966;DHT22;10144;50.874;4.762;2022-10-20T03:11:44;12.50;99.90
19966;DHT22;10144;50.874;4.762;2022-10-20T03:14:10;12.50;99.90
19966;DHT22;10144;50.874;4.762;2022-10-20T03:16:36;12.50;99.90
19966;DHT22;10144;50.874;4.762;2022-10-20T03:19:02;12.40;99.90
19966;DHT22;10144;50.874;4.762;2022-10-20T03:21:28;12.40;99.90
19966;DHT22;10144;50.874;4.762;2022-10-20T03:23:54;12.40;99.90
19966;DHT22;10144;50.874;4.762;2022-10-20T03:26:19;12.40;99.90
19966;DHT22;10144;50.874;4.762;2022-10-20T03:28:46;12.40;99.90
19966;DHT22;10144;50.874;4.762;2022-10-20T03:31:12;12.40;99.90
19966;DHT22;10144;50.874;4.762;2022-10-20T03:33:37;12.40;99.90
19966;DHT22;10144;50.874;4.762;2022-10-20T03:36:07;12.40;99.90
19966;DHT22;10144;50.874;4.762;2022-10-20T03:38:32;12.40;99.90
19966;DHT22;10144;50.874;4.762;2022-10-20T03:40:58;12.50;99.90
19966;DHT22;10144;50.874;4.762;2022-10-20T03:43:23;12.50;99.90
19966;DHT22;10144;50.874;4.762;2022-10-20T03:45:49;12.50;99.90
19966;DHT22;10144;50.874;4.762;2022-10-20T03:48:15;12.40;99.90
19966;DHT22;10144;50.874;4.762;2022-10-20T03:50:42;12.50;99.90
19966;DHT22;10144;50.874;4.762;2022-10-20T03:53:12;12.50;99.90
19966;DHT22;10144;50.874;4.762;2022-10-20T03:55:38;12.40;99.90
19966;DHT22;10144;50.874;4.762;2022-10-20T03:58:04;12.40;99.90
19966;DHT22;10144;50.874;4.762;2022-10-20T04:00:29;12.50;99.90
19966;DHT22;10144;50.874;4.762;2022-10-20T04:02:55;12.50;99.90
19966;DHT22;10144;50.874;4.762;2022-10-20T04:05:21;12.50;99.90
19966;DHT22;10144;50.874;4.762;2022-10-20T04:07:47;12.40;99.90
19966;DHT22;10144;50.874;4.762;2022-10-20T04:10:14;12.40;99.90
19966;DHT22;10144;50.874;4.762;2022-10-20T04:12:41;12.50;99.90
19966;DHT22;10144;50.874;4.762;2022-10-20T04:15:07;12.70;99.90
19966;DHT22;10144;50.874;4.762;2022-10-20T04:17:33;12.80;99.90
19966;DHT22;10144;50.874;4.762;2022-10-20T04:19:59;12.90;99.90
19966;DHT22;10144;50.874;4.762;2022-10-20T04:22:28;12.80;99.90
19966;DHT22;10144;50.874;4.762;2022-10-20T04:24:54;12.80;99.90
19966;DHT22;10144;50.874;4.762;2022-10-20T04:27:20;12.60;99.90
19966;DHT22;10144;50.874;4.762;2022-10-20T04:29:46;12.70;99.90
19966;DHT22;10144;50.874;4.762;2022-10-20T04:32:12;12.60;99.90
19966;DHT22;10144;50.874;4.762;2022-10-20T04:34:37;12.60;99.90
19966;DHT22;10144;50.874;4.762;2022-10-20T04:37:03;12.50;99.90
19966;DHT22;10144;50.874;4.762;2022-10-20T04:39:28;12.30;99.90
19966;DHT22;10144;50.874;4.762;2022-10-20T04:41:54;12.30;99.90
19966;DHT22;10144;50.874;4.762;2022-10-20T04:44:20;12.30;99.90
19966;DHT22;10144;50.874;4.762;2022-10-20T04:46:45;12.30;99.90
19966;DHT22;10144;50.874;4.762;2022-10-20T04:49:11;12.20;99.90
19966;DHT22;10144;50.874;4.762;2022-10-20T04:51:37;12.20;99.90
19966;DHT22;10144;50.874;4.762;2022-10-20T04:54:03;12.20;99.90
19966;DHT22;10144;50.874;4.762;2022-10-20T04:56:29;12.20;99.90
19966;DHT22;10144;50.874;4.762;2022-10-20T04:58:56;12.20;99.90
19966;DHT22;10144;50.874;4.762;2022-10-20T05:01:26;12.30;99.90
19966;DHT22;10144;50.874;4.762;2022-10-20T05:03:52;12.40;99.90
19966;DHT22;10144;50.874;4.762;2022-10-20T05:06:23;12.30;99.90
19966;DHT22;10144;50.874;4.762;2022-10-20T05:08:50;12.20;99.90
19966;DHT22;10144;50.874;4.762;2022-10-20T05:11:18;12.10;99.90
19966;DHT22;10144;50.874;4.762;2022-10-20T05:13:44;12.10;99.90
19966;DHT22;10144;50.874;4.762;2022-10-20T05:16:10;12.30;99.90
19966;DHT22;10144;50.874;4.762;2022-10-20T05:18:37;12.30;99.90
19966;DHT22;10144;50.874;4.762;2022-10-20T05:21:11;12.40;99.90
19966;DHT22;10144;50.874;4.762;2022-10-20T05:23:41;12.60;99.90
19966;DHT22;10144;50.874;4.762;2022-10-20T05:26:17;12.70;99.90
19966;DHT22;10144;50.874;4.762;2022-10-20T05:28:45;12.60;99.90
19966;DHT22;10144;50.874;4.762;2022-10-20T05:31:11;12.70;99.90
19966;DHT22;10144;50.874;4.762;2022-10-20T05:33:37;12.80;99.90
19966;DHT22;10144;50.874;4.762;2022-10-20T05:36:12;12.90;99.90
19966;DHT22;10144;50.874;4.762;2022-10-20T05:38:38;13.10;99.90
19966;DHT22;10144;50.874;4.762;2022-10-20T05:41:19;13.10;99.90
19966;DHT22;10144;50.874;4.762;2022-10-20T05:43:52;13.10;99.90
19966;DHT22;10144;50.874;4.762;2022-10-20T05:46:18;13.20;99.90
19966;DHT22;10144;50.874;4.762;2022-10-20T05:48:45;13.30;99.90
19966;DHT22;10144;50.874;4.762;2022-10-20T05:51:16;13.20;99.90
19966;DHT22;10144;50.874;4.762;2022-10-20T05:53:43;13.30;99.90
19966;DHT22;10144;50.874;4.762;2022-10-20T05:56:11;13.30;99.90
19966;DHT22;10144;50.874;4.762;2022-10-20T05:58:37;13.30;99.90
19966;DHT22;10144;50.874;4.762;2022-10-20T06:01:11;13.10;99.90
19966;DHT22;10144;50.874;4.762;2022-10-20T06:06:14;13.00;99.90
19966;DHT22;10144;50.874;4.762;2022-10-20T06:08:40;13.20;99.90
19966;DHT22;10144;50.874;4.762;2022-10-20T06:11:07;13.40;99.90
19966;DHT22;10144;50.874;4.762;2022-10-20T06:13:34;13.50;99.90
19966;DHT22;10144;50.874;4.762;2022-10-20T06:16:29;13.60;99.90
19966;DHT22;10144;50.874;4.762;2022-10-20T06:18:56;13.70;99.90
19966;DHT22;10144;50.874;4.762;2022-10-20T06:21:25;13.70;99.90
19966;DHT22;10144;50.874;4.762;2022-10-20T06:23:51;13.70;99.90
19966;DHT22;10144;50.874;4.762;2022-10-20T06:26:23;13.70;99.90
19966;DHT22;10144;50.874;4.762;2022-10-20T06:28:54;13.70;99.90
19966;DHT22;10144;50.874;4.762;2022-10-20T06:31:37;13.70;99.90
19966;DHT22;10144;50.874;4.762;2022-10-20T06:34:05;13.60;99.90
19966;DHT22;10144;50.874;4.762;2022-10-20T06:36:36;13.50;99.90
19966;DHT22;10144;50.874;4.762;2022-10-20T06:39:05;13.30;99.90
19966;DHT22;10144;50.874;4.762;2022-10-20T06:41:31;13.20;99.90
19966;DHT22;10144;50.874;4.762;2022-10-20T06:43:56;13.10;99.90
19966;DHT22;10144;50.874;4.762;2022-10-20T06:46:28;13.00;99.90
19966;DHT22;10144;50.874;4.762;2022-10-20T06:48:54;13.10;99.90
19966;DHT22;10144;50.874;4.762;2022-10-20T06:51:21;12.90;99.90
19966;DHT22;10144;50.874;4.762;2022-10-20T06:53:47;12.80;99.90
19966;DHT22;10144;50.874;4.762;2022-10-20T06:56:18;12.80;99.90
19966;DHT22;10144;50.874;4.762;2022-10-20T06:58:46;12.80;99.90
19966;DHT22;10144;50.874;4.762;2022-10-20T07:01:13;12.80;99.90
19966;DHT22;10144;50.874;4.762;2022-10-20T07:03:42;12.80;99.90
19966;DHT22;10144;50.874;4.762;2022-10-20T07:06:13;12.80;99.90
19966;DHT22;10144;50.874;4.762;2022-10-20T07:08:38;12.80;99.90
19966;DHT22;10144;50.874;4.762;2022-10-20T07:11:06;12.90;99.90
19966;DHT22;10144;50.874;4.762;2022-10-20T07:13:33;12.90;99.90
19966;DHT22;10144;50.874;4.762;2022-10-20T07:15:59;12.90;99.90
19966;DHT22;10144;50.874;4.762;2022-10-20T07:18:26;13.00;99.90
19966;DHT22;10144;50.874;4.762;2022-10-20T07:21:03;13.00;99.90
19966;DHT22;10144;50.874;4.762;2022-10-20T07:23:30;13.00;99.90
19966;DHT22;10144;50.874;4.762;2022-10-20T07:26:04;13.00;99.90
19966;DHT22;10144;50.874;4.762;2022-10-20T07:28:31;13.10;99.90
19966;DHT22;10144;50.874;4.762;2022-10-20T07:30:57;13.20;99.90
19966;DHT22;10144;50.874;4.762;2022-10-20T07:33:26;13.20;99.90
19966;DHT22;10144;50.874;4.762;2022-10-20T07:35:51;13.30;99.90
19966;DHT22;10144;50.874;4.762;2022-10-20T07:38:17;13.20;99.90
19966;DHT22;10144;50.874;4.762;2022-10-20T07:40:42;13.20;99.90
19966;DHT22;10144;50.874;4.762;2022-10-20T07:43:08;13.30;99.90
19966;DHT22;10144;50.874;4.762;2022-10-20T07:45:34;13.20;99.90
19966;DHT22;10144;50.874;4.762;2022-10-20T07:47:59;13.10;99.90
19966;DHT22;10144;50.874;4.762;2022-10-20T07:50:26;13.20;99.90
19966;DHT22;10144;50.874;4.762;2022-10-20T07:52:52;13.20;99.90
19966;DHT22;10144;50.874;4.762;2022-10-20T07:55:18;13.20;99.90
19966;DHT22;10144;50.874;4.762;2022-10-20T07:57:44;13.20;99.90
19966;DHT22;10144;50.874;4.762;2022-10-20T08:00:12;13.30;99.90
19966;DHT22;10144;50.874;4.762;2022-10-20T08:02:43;13.40;99.90
19966;DHT22;10144;50.874;4.762;2022-10-20T08:05:12;13.60;99.90
19966;DHT22;10144;50.874;4.762;2022-10-20T08:07:43;13.70;99.90
19966;DHT22;10144;50.874;4.762;2022-10-20T08:10:12;13.80;99.90
19966;DHT22;10144;50.874;4.762;2022-10-20T08:12:39;13.80;99.90
19966;DHT22;10144;50.874;4.762;2022-10-20T08:15:07;13.80;99.90
19966;DHT22;10144;50.874;4.762;2022-10-20T08:17:33;13.90;99.90
19966;DHT22;10144;50.874;4.762;2022-10-20T08:20:03;14.00;99.90
19966;DHT22;10144;50.874;4.762;2022-10-20T08:22:29;14.10;99.90
19966;DHT22;10144;50.874;4.762;2022-10-20T08:24:54;14.10;99.90
19966;DHT22;10144;50.874;4.762;2022-10-20T08:27:21;14.00;99.90
19966;DHT22;10144;50.874;4.762;2022-10-20T08:29:48;14.10;99.90
19966;DHT22;10144;50.874;4.762;2022-10-20T08:32:16;14.20;99.90
19966;DHT22;10144;50.874;4.762;2022-10-20T08:34:45;14.20;99.90
19966;DHT22;10144;50.874;4.762;2022-10-20T08:37:11;14.30;99.90
19966;DHT22;10144;50.874;4.762;2022-10-20T08:39:40;14.30;99.90
19966;DHT22;10144;50.874;4.762;2022-10-20T08:42:11;14.30;99.90
19966;DHT22;10144;50.874;4.762;2022-10-20T08:44:42;14.30;99.90
19966;DHT22;10144;50.874;4.762;2022-10-20T08:47:36;14.30;99.90
19966;DHT22;10144;50.874;4.762;2022-10-20T08:50:05;14.30;99.90
19966;DHT22;10144;50.874;4.762;2022-10-20T08:52:31;14.30;99.90
19966;DHT22;10144;50.874;4.762;2022-10-20T08:54:58;14.40;99.90
19966;DHT22;10144;50.874;4.762;2022-10-20T08:57:26;14.30;99.90
19966;DHT22;10144;50.874;4.762;2022-10-20T08:59:54;14.20;99.90
19966;DHT22;10144;50.874;4.762;2022-10-20T09:02:21;14.20;99.90
19966;DHT22;10144;50.874;4.762;2022-10-20T09:04:59;14.40;99.90
19966;DHT22;10144;50.874;4.762;2022-10-20T09:07:32;14.50;99.90
19966;DHT22;10144;50.874;4.762;2022-10-20T09:10:23;14.50;99.90
19966;DHT22;10144;50.874;4.762;2022-10-20T09:12:50;14.50;99.90
19966;DHT22;10144;50.874;4.762;2022-10-20T09:15:17;14.40;99.90
19966;DHT22;10144;50.874;4.762;2022-10-20T09:18:13;14.30;99.90
19966;DHT22;10144;50.874;4.762;2022-10-20T09:20:52;14.40;99.90
19966;DHT22;10144;50.874;4.762;2022-10-20T09:23:27;14.30;99.90
19966;DHT22;10144;50.874;4.762;2022-10-20T09:25:55;14.40;99.90
19966;DHT22;10144;50.874;4.762;2022-10-20T09:28:23;14.40;99.90
19966;DHT22;10144;50.874;4.762;2022-10-20T09:30:50;14.40;99.90
19966;DHT22;10144;50.874;4.762;2022-10-20T09:33:30;14.40;99.90
19966;DHT22;10144;50.874;4.762;2022-10-20T09:36:16;14.40;99.90
19966;DHT22;10144;50.874;4.762;2022-10-20T09:38:48;14.40;99.90
19966;DHT22;10144;50.874;4.762;2022-10-20T09:41:22;14.50;99.90
19966;DHT22;10144;50.874;4.762;2022-10-20T09:43:53;14.50;99.90
19966;DHT22;10144;50.874;4.762;2022-10-20T09:46:22;14.50;99.90
19966;DHT22;10144;50.874;4.762;2022-10-20T09:48:49;14.60;99.90
19966;DHT22;10144;50.874;4.762;2022-10-20T09:51:19;14.60;99.90
19966;DHT22;10144;50.874;4.762;2022-10-20T09:56:34;14.70;99.90
19966;DHT22;10144;50.874;4.762;2022-10-20T09:59:03;14.80;99.90
19966;DHT22;10144;50.874;4.762;2022-10-20T10:01:30;14.80;99.90
19966;DHT22;10144;50.874;4.762;2022-10-20T10:03:57;14.80;99.90
19966;DHT22;10144;50.874;4.762;2022-10-20T10:06:41;14.80;99.90
19966;DHT22;10144;50.874;4.762;2022-10-20T10:09:27;14.80;99.90
19966;DHT22;10144;50.874;4.762;2022-10-20T10:12:01;14.80;99.90
19966;DHT22;10144;50.874;4.762;2022-10-20T10:14:28;14.70;99.90
19966;DHT22;10144;50.874;4.762;2022-10-20T10:16:54;14.70;99.90
19966;DHT22;10144;50.874;4.762;2022-10-20T10:19:27;14.70;99.90
19966;DHT22;10144;50.874;4.762;2022-10-20T10:21:56;14.70;99.90
19966;DHT22;10144;50.874;4.762;2022-10-20T10:26:54;14.80;99.90
19966;DHT22;10144;50.874;4.762;2022-10-20T10:31:55;15.00;99.90
19966;DHT22;10144;50.874;4.762;2022-10-20T10:34:28;15.00;99.90
19966;DHT22;10144;50.874;4.762;2022-10-20T10:36:56;15.00;99.90
19966;DHT22;10144;50.874;4.762;2022-10-20T10:39:22;15.10;99.90
19966;DHT22;10144;50.874;4.762;2022-10-20T10:50:35;15.10;99.90
19966;DHT22;10144;50.874;4.762;2022-10-20T11:28:43;16.70;99.90
19966;DHT22;10144;50.874;4.762;2022-10-20T11:34:04;17.00;99.90
19966;DHT22;10144;50.874;4.762;2022-10-20T11:36:41;17.20;99.90
19966;DHT22;10144;50.874;4.762;2022-10-20T11:39:15;17.40;99.90
19966;DHT22;10144;50.874;4.762;2022-10-20T11:41:43;17.40;99.90
19966;DHT22;10144;50.874;4.762;2022-10-20T11:44:30;17.50;99.90
19966;DHT22;10144;50.874;4.762;2022-10-20T11:47:04;17.70;99.90
19966;DHT22;10144;50.874;4.762;2022-10-20T11:49:31;17.70;99.90
19966;DHT22;10144;50.874;4.762;2022-10-20T11:52:53;17.60;99.90
19966;DHT22;10144;50.874;4.762;2022-10-20T11:55:14;17.80;99.90
19966;DHT22;10144;50.874;4.762;2022-10-20T12:05:44;19.80;99.90
19966;DHT22;10144;50.874;4.762;2022-10-20T12:14:18;20.60;99.90
19966;DHT22;10144;50.874;4.762;2022-10-20T12:22:05;20.00;99.90
19966;DHT22;10144;50.874;4.762;2022-10-20T12:39:51;20.20;99.90
19966;DHT22;10144;50.874;4.762;2022-10-20T12:44:46;21.00;99.90
19966;DHT22;10144;50.874;4.762;2022-10-20T12:47:24;21.20;99.90
19966;DHT22;10144;50.874;4.762;2022-10-20T12:52:38;21.40;99.90
19966;DHT22;10144;50.874;4.762;2022-10-20T12:55:17;21.60;99.90
19966;DHT22;10144;50.874;4.762;2022-10-20T12:57:44;22.00;99.90
19966;DHT22;10144;50.874;4.762;2022-10-20T13:02:51;22.10;99.90
19966;DHT22;10144;50.874;4.762;2022-10-20T13:21:00;22.30;99.90
19966;DHT22;10144;50.874;4.762;2022-10-20T13:23:36;22.20;99.90
19966;DHT22;10144;50.874;4.762;2022-10-20T13:26:22;21.60;99.90
19966;DHT22;10144;50.874;4.762;2022-10-20T13:28:50;21.40;99.90
19966;DHT22;10144;50.874;4.762;2022-10-20T13:31:31;21.30;99.90
19966;DHT22;10144;50.874;4.762;2022-10-20T13:34:31;21.10;99.90
19966;DHT22;10144;50.874;4.762;2022-10-20T13:45:37;21.20;99.90
19966;DHT22;10144;50.874;4.762;2022-10-20T13:51:02;21.20;99.90
19966;DHT22;10144;50.874;4.762;2022-10-20T13:53:41;21.10;99.90
19966;DHT22;10144;50.874;4.762;2022-10-20T13:56:28;21.20;99.90
19966;DHT22;10144;50.874;4.762;2022-10-20T13:59:04;21.20;99.90
19966;DHT22;10144;50.874;4.762;2022-10-20T14:01:33;21.10;99.90
19966;DHT22;10144;50.874;4.762;2022-10-20T14:03:59;21.10;99.90
19966;DHT22;10144;50.874;4.762;2022-10-20T14:06:34;21.00;99.90
19966;DHT22;10144;50.874;4.762;2022-10-20T14:09:19;20.90;99.90
19966;DHT22;10144;50.874;4.762;2022-10-20T14:11:48;20.80;99.90
19966;DHT22;10144;50.874;4.762;2022-10-20T14:14:19;20.70;99.90
19966;DHT22;10144;50.874;4.762;2022-10-20T14:16:59;20.80;99.90
19966;DHT22;10144;50.874;4.762;2022-10-20T14:19:26;20.80;99.90
19966;DHT22;10144;50.874;4.762;2022-10-20T14:24:42;20.80;99.90
19966;DHT22;10144;50.874;4.762;2022-10-20T14:27:23;20.80;99.90
19966;DHT22;10144;50.874;4.762;2022-10-20T14:29:51;20.90;99.90
19966;DHT22;10144;50.874;4.762;2022-10-20T14:32:19;20.90;99.90
19966;DHT22;10144;50.874;4.762;2022-10-20T14:35:00;20.80;99.90
19966;DHT22;10144;50.874;4.762;2022-10-20T14:37:31;20.80;99.90
19966;DHT22;10144;50.874;4.762;2022-10-20T14:40:03;20.70;99.90
19966;DHT22;10144;50.874;4.762;2022-10-20T14:42:30;20.60;99.90
19966;DHT22;10144;50.874;4.762;2022-10-20T14:44:56;20.60;99.90
19966;DHT22;10144;50.874;4.762;2022-10-20T14:47:24;20.50;99.90
19966;DHT22;10144;50.874;4.762;2022-10-20T14:49:53;20.50;99.90
19966;DHT22;10144;50.874;4.762;2022-10-20T14:52:22;20.50;99.90
19966;DHT22;10144;50.874;4.762;2022-10-20T14:54:49;20.50;99.90
19966;DHT22;10144;50.874;4.762;2022-10-20T15:00:21;20.50;99.90
19966;DHT22;10144;50.874;4.762;2022-10-20T15:02:46;20.60;99.90
19966;DHT22;10144;50.874;4.762;2022-10-20T15:05:33;20.60;99.90
19966;DHT22;10144;50.874;4.762;2022-10-20T15:10:46;20.60;99.90
19966;DHT22;10144;50.874;4.762;2022-10-20T15:13:29;20.50;99.90
19966;DHT22;10144;50.874;4.762;2022-10-20T15:16:00;20.40;99.90
19966;DHT22;10144;50.874;4.762;2022-10-20T15:18:27;20.40;99.90
19966;DHT22;10144;50.874;4.762;2022-10-20T15:20:55;20.30;99.90
19966;DHT22;10144;50.874;4.762;2022-10-20T15:23:24;20.30;99.90
19966;DHT22;10144;50.874;4.762;2022-10-20T15:26:27;20.40;99.90
19966;DHT22;10144;50.874;4.762;2022-10-20T15:28:49;20.30;99.90
19966;DHT22;10144;50.874;4.762;2022-10-20T15:33:49;20.20;99.90
19966;DHT22;10144;50.874;4.762;2022-10-20T15:38:48;20.20;99.90
19966;DHT22;10144;50.874;4.762;2022-10-20T15:41:15;20.20;99.90
19966;DHT22;10144;50.874;4.762;2022-10-20T15:43:41;20.30;99.90
19966;DHT22;10144;50.874;4.762;2022-10-20T15:46:09;20.20;99.90
19966;DHT22;10144;50.874;4.762;2022-10-20T15:48:35;20.10;99.90
19966;DHT22;10144;50.874;4.762;2022-10-20T15:51:01;20.10;99.90
19966;DHT22;10144;50.874;4.762;2022-10-20T15:53:27;20.10;99.90
19966;DHT22;10144;50.874;4.762;2022-10-20T15:55:52;20.10;99.90
19966;DHT22;10144;50.874;4.762;2022-10-20T15:58:18;20.00;99.90
19966;DHT22;10144;50.874;4.762;2022-10-20T16:00:44;19.80;99.90
19966;DHT22;10144;50.874;4.762;2022-10-20T16:03:17;19.80;99.90
19966;DHT22;10144;50.874;4.762;2022-10-20T16:05:44;19.70;99.90
19966;DHT22;10144;50.874;4.762;2022-10-20T16:08:11;19.70;99.90
19966;DHT22;10144;50.874;4.762;2022-10-20T16:10:37;19.70;99.90
19966;DHT22;10144;50.874;4.762;2022-10-20T16:13:03;19.60;99.90
19966;DHT22;10144;50.874;4.762;2022-10-20T16:15:35;19.60;99.90
19966;DHT22;10144;50.874;4.762;2022-10-20T16:18:00;19.50;99.90
19966;DHT22;10144;50.874;4.762;2022-10-20T16:20:26;19.40;99.90
19966;DHT22;10144;50.874;4.762;2022-10-20T16:22:52;19.30;99.90
19966;DHT22;10144;50.874;4.762;2022-10-20T16:25:18;19.30;99.90
19966;DHT22;10144;50.874;4.762;2022-10-20T16:27:43;19.30;99.90
19966;DHT22;10144;50.874;4.762;2022-10-20T16:30:09;19.30;99.90
19966;DHT22;10144;50.874;4.762;2022-10-20T16:32:35;19.20;99.90
19966;DHT22;10144;50.874;4.762;2022-10-20T16:35:03;19.20;99.90
19966;DHT22;10144;50.874;4.762;2022-10-20T16:37:30;19.20;99.90
19966;DHT22;10144;50.874;4.762;2022-10-20T16:39:56;19.10;99.90
19966;DHT22;10144;50.874;4.762;2022-10-20T16:42:22;19.00;99.90
19966;DHT22;10144;50.874;4.762;2022-10-20T16:44:47;19.00;99.90
19966;DHT22;10144;50.874;4.762;2022-10-20T16:47:13;19.00;99.90
19966;DHT22;10144;50.874;4.762;2022-10-20T16:49:42;19.00;99.90
19966;DHT22;10144;50.874;4.762;2022-10-20T16:52:07;18.90;99.90
19966;DHT22;10144;50.874;4.762;2022-10-20T16:54:33;18.90;99.90
19966;DHT22;10144;50.874;4.762;2022-10-20T16:56:58;18.90;99.90
19966;DHT22;10144;50.874;4.762;2022-10-20T16:59:24;18.80;99.90
19966;DHT22;10144;50.874;4.762;2022-10-20T17:01:50;18.80;99.90
19966;DHT22;10144;50.874;4.762;2022-10-20T17:04:15;18.70;99.90
19966;DHT22;10144;50.874;4.762;2022-10-20T17:06:41;18.70;99.90
19966;DHT22;10144;50.874;4.762;2022-10-20T17:09:07;18.70;99.90
19966;DHT22;10144;50.874;4.762;2022-10-20T17:11:33;18.80;99.90
19966;DHT22;10144;50.874;4.762;2022-10-20T17:13:59;18.80;99.90
19966;DHT22;10144;50.874;4.762;2022-10-20T17:16:28;18.70;99.90
19966;DHT22;10144;50.874;4.762;2022-10-20T17:18:57;18.50;99.90
19966;DHT22;10144;50.874;4.762;2022-10-20T17:21:24;18.50;99.90
19966;DHT22;10144;50.874;4.762;2022-10-20T17:23:50;18.50;99.90
19966;DHT22;10144;50.874;4.762;2022-10-20T17:26:21;18.50;99.90
19966;DHT22;10144;50.874;4.762;2022-10-20T17:28:47;18.40;99.90
19966;DHT22;10144;50.874;4.762;2022-10-20T17:31:16;18.40;99.90
19966;DHT22;10144;50.874;4.762;2022-10-20T17:33:43;18.40;99.90
19966;DHT22;10144;50.874;4.762;2022-10-20T17:36:09;18.40;99.90
19966;DHT22;10144;50.874;4.762;2022-10-20T17:38:39;18.30;99.90
19966;DHT22;10144;50.874;4.762;2022-10-20T17:41:07;18.30;99.90
19966;DHT22;10144;50.874;4.762;2022-10-20T17:43:33;18.30;99.90
19966;DHT22;10144;50.874;4.762;2022-10-20T17:46:07;18.30;99.90
19966;DHT22;10144;50.874;4.762;2022-10-20T17:48:35;18.30;99.90
19966;DHT22;10144;50.874;4.762;2022-10-20T17:51:03;18.30;99.90
19966;DHT22;10144;50.874;4.762;2022-10-20T17:53:33;18.40;99.90
19966;DHT22;10144;50.874;4.762;2022-10-20T17:56:09;18.40;99.90
19966;DHT22;10144;50.874;4.762;2022-10-20T17:58:35;18.40;99.90
19966;DHT22;10144;50.874;4.762;2022-10-20T18:01:15;18.40;99.90
19966;DHT22;10144;50.874;4.762;2022-10-20T18:03:42;18.30;99.90
19966;DHT22;10144;50.874;4.762;2022-10-20T18:06:20;18.30;99.90
19966;DHT22;10144;50.874;4.762;2022-10-20T18:08:46;18.30;99.90
19966;DHT22;10144;50.874;4.762;2022-10-20T18:11:14;18.30;99.90
19966;DHT22;10144;50.874;4.762;2022-10-20T18:13:40;18.20;99.90
19966;DHT22;10144;50.874;4.762;2022-10-20T18:16:07;18.20;99.90
19966;DHT22;10144;50.874;4.762;2022-10-20T18:18:34;18.20;99.90
19966;DHT22;10144;50.874;4.762;2022-10-20T18:21:00;18.20;99.90
19966;DHT22;10144;50.874;4.762;2022-10-20T18:23:26;18.20;99.90
19966;DHT22;10144;50.874;4.762;2022-10-20T18:25:54;18.20;99.90
19966;DHT22;10144;50.874;4.762;2022-10-20T18:28:20;18.20;99.90
19966;DHT22;10144;50.874;4.762;2022-10-20T18:30:47;18.10;99.90